sensor_id;sensor_type;location;lat;lon;timestamp;pressure;altitude;pressure_sealevel;temperature
66372;BMP180;53168;51.146;17.120;2024-01-25T00:00:54;99910.60;;;7.90
66372;BMP180;53168;51.146;17.120;2024-01-25T00:03:44;99918.60;;;7.90
66372;BMP180;53168;51.146;17.120;2024-01-25T00:06:18;99915.20;;;7.90
66372;BMP180;53168;51.146;17.120;2024-01-25T00:08:55;99924.40;;;7.90
66372;BMP180;53168;51.146;17.120;2024-01-25T00:11:29;99916.80;;;7.90
66372;BMP180;53168;51.146;17.120;2024-01-25T00:14:10;99919.80;;;7.90
66372;BMP180;53168;51.146;17.120;2024-01-25T00:16:45;99922.60;;;7.90
66372;BMP180;53168;51.146;17.120;2024-01-25T00:19:24;99926.60;;;7.80
66372;BMP180;53168;51.146;17.120;2024-01-25T00:21:59;99930.20;;;7.90
66372;BMP180;53168;51.146;17.120;2024-01-25T00:24:39;99931.40;;;7.90
66372;BMP180;53168;51.146;17.120;2024-01-25T00:27:14;99934.20;;;7.80
66372;BMP180;53168;51.146;17.120;2024-01-25T00:29:49;99951.60;;;7.70
66372;BMP180;53168;51.146;17.120;2024-01-25T00:32:23;99933.60;;;7.60
66372;BMP180;53168;51.146;17.120;2024-01-25T00:35:00;99942.00;;;7.62
66372;BMP180;53168;51.146;17.120;2024-01-25T00:37:36;99941.80;;;7.60
66372;BMP180;53168;51.146;17.120;2024-01-25T00:40:12;99950.20;;;7.50
66372;BMP180;53168;51.146;17.120;2024-01-25T00:42:48;99957.60;;;7.60
66372;BMP180;53168;51.146;17.120;2024-01-25T00:45:27;99956.40;;;7.70
66372;BMP180;53168;51.146;17.120;2024-01-25T00:48:03;99963.00;;;7.86
66372;BMP180;53168;51.146;17.120;2024-01-25T00:50:39;99954.60;;;7.86
66372;BMP180;53168;51.146;17.120;2024-01-25T00:53:14;99948.00;;;7.88
66372;BMP180;53168;51.146;17.120;2024-01-25T00:55:50;99957.00;;;7.90
66372;BMP180;53168;51.146;17.120;2024-01-25T00:58:26;99956.80;;;7.90
66372;BMP180;53168;51.146;17.120;2024-01-25T01:01:01;99943.00;;;7.98
66372;BMP180;53168;51.146;17.120;2024-01-25T01:03:37;99961.00;;;7.94
66372;BMP180;53168;51.146;17.120;2024-01-25T01:06:13;99963.20;;;8.00
66372;BMP180;53168;51.146;17.120;2024-01-25T01:08:49;99973.00;;;8.00
66372;BMP180;53168;51.146;17.120;2024-01-25T01:11:23;99967.00;;;8.00
66372;BMP180;53168;51.146;17.120;2024-01-25T01:13:57;99972.80;;;8.00
66372;BMP180;53168;51.146;17.120;2024-01-25T01:16:30;99970.20;;;8.00
66372;BMP180;53168;51.146;17.120;2024-01-25T01:19:06;99970.20;;;8.00
66372;BMP180;53168;51.146;17.120;2024-01-25T01:21:51;99982.80;;;8.00
66372;BMP180;53168;51.146;17.120;2024-01-25T01:24:55;99981.40;;;8.00
66372;BMP180;53168;51.146;17.120;2024-01-25T01:27:28;99985.80;;;8.00
66372;BMP180;53168;51.146;17.120;2024-01-25T01:30:03;99976.40;;;8.00
66372;BMP180;53168;51.146;17.120;2024-01-25T01:32:37;99988.20;;;8.00
66372;BMP180;53168;51.146;17.120;2024-01-25T01:35:11;99990.20;;;8.00
66372;BMP180;53168;51.146;17.120;2024-01-25T01:37:45;99986.80;;;7.92
66372;BMP180;53168;51.146;17.120;2024-01-25T01:40:19;100003.80;;;8.00
66372;BMP180;53168;51.146;17.120;2024-01-25T01:42:53;99994.40;;;8.00
66372;BMP180;53168;51.146;17.120;2024-01-25T01:45:33;100003.80;;;8.00
66372;BMP180;53168;51.146;17.120;2024-01-25T01:48:27;99999.40;;;8.00
66372;BMP180;53168;51.146;17.120;2024-01-25T01:51:02;99992.60;;;8.00
66372;BMP180;53168;51.146;17.120;2024-01-25T01:53:38;99990.60;;;8.00
66372;BMP180;53168;51.146;17.120;2024-01-25T01:56:12;100001.40;;;8.00
66372;BMP180;53168;51.146;17.120;2024-01-25T01:58:50;100008.60;;;8.00
66372;BMP180;53168;51.146;17.120;2024-01-25T02:01:26;100005.20;;;8.02
66372;BMP180;53168;51.146;17.120;2024-01-25T02:04:00;100013.80;;;8.10
66372;BMP180;53168;51.146;17.120;2024-01-25T02:06:34;100009.60;;;8.10
66372;BMP180;53168;51.146;17.120;2024-01-25T02:09:09;100017.60;;;8.10
66372;BMP180;53168;51.146;17.120;2024-01-25T02:11:43;100008.20;;;8.10
66372;BMP180;53168;51.146;17.120;2024-01-25T02:14:16;100010.60;;;8.10
66372;BMP180;53168;51.146;17.120;2024-01-25T02:16:50;100013.80;;;8.16
66372;BMP180;53168;51.146;17.120;2024-01-25T02:19:25;100001.20;;;8.12
66372;BMP180;53168;51.146;17.120;2024-01-25T02:22:03;100012.40;;;8.18
66372;BMP180;53168;51.146;17.120;2024-01-25T02:24:39;100001.20;;;8.20
66372;BMP180;53168;51.146;17.120;2024-01-25T02:29:20;100004.80;;;8.20
66372;BMP180;53168;51.146;17.120;2024-01-25T02:31:56;100006.60;;;8.20
66372;BMP180;53168;51.146;17.120;2024-01-25T02:34:30;99999.60;;;8.10
66372;BMP180;53168;51.146;17.120;2024-01-25T02:37:04;100003.80;;;8.10
66372;BMP180;53168;51.146;17.120;2024-01-25T02:39:38;100002.00;;;8.00
66372;BMP180;53168;51.146;17.120;2024-01-25T02:42:15;100002.60;;;8.00
66372;BMP180;53168;51.146;17.120;2024-01-25T02:44:49;99997.40;;;8.00
66372;BMP180;53168;51.146;17.120;2024-01-25T02:47:25;100002.20;;;7.96
66372;BMP180;53168;51.146;17.120;2024-01-25T02:49:59;99995.20;;;7.90
66372;BMP180;53168;51.146;17.120;2024-01-25T02:52:33;99998.60;;;7.90
66372;BMP180;53168;51.146;17.120;2024-01-25T02:55:08;99993.00;;;7.90
66372;BMP180;53168;51.146;17.120;2024-01-25T02:57:42;99989.20;;;7.90
66372;BMP180;53168;51.146;17.120;2024-01-25T03:00:19;99989.00;;;7.90
66372;BMP180;53168;51.146;17.120;2024-01-25T03:02:53;99990.40;;;7.90
66372;BMP180;53168;51.146;17.120;2024-01-25T03:05:28;99996.40;;;7.92
66372;BMP180;53168;51.146;17.120;2024-01-25T03:08:04;100006.60;;;8.00
66372;BMP180;53168;51.146;17.120;2024-01-25T03:10:37;99996.40;;;8.00
66372;BMP180;53168;51.146;17.120;2024-01-25T03:13:11;100010.20;;;8.00
66372;BMP180;53168;51.146;17.120;2024-01-25T03:15:46;100008.60;;;8.00
66372;BMP180;53168;51.146;17.120;2024-01-25T03:18:19;100016.60;;;8.10
66372;BMP180;53168;51.146;17.120;2024-01-25T03:20:55;100008.40;;;8.10
66372;BMP180;53168;51.146;17.120;2024-01-25T03:23:31;100003.40;;;8.08
66372;BMP180;53168;51.146;17.120;2024-01-25T03:26:06;100006.80;;;8.00
66372;BMP180;53168;51.146;17.120;2024-01-25T03:28:40;100008.40;;;8.00
66372;BMP180;53168;51.146;17.120;2024-01-25T03:31:14;100003.20;;;8.00
66372;BMP180;53168;51.146;17.120;2024-01-25T03:33:48;100023.20;;;8.00
66372;BMP180;53168;51.146;17.120;2024-01-25T03:36:23;100019.00;;;8.00
66372;BMP180;53168;51.146;17.120;2024-01-25T03:38:57;100019.00;;;8.00
66372;BMP180;53168;51.146;17.120;2024-01-25T03:41:31;100015.20;;;8.10
66372;BMP180;53168;51.146;17.120;2024-01-25T03:44:05;100025.20;;;8.10
66372;BMP180;53168;51.146;17.120;2024-01-25T03:46:39;100013.80;;;8.10
66372;BMP180;53168;51.146;17.120;2024-01-25T03:49:13;100012.80;;;8.12
66372;BMP180;53168;51.146;17.120;2024-01-25T03:51:58;100004.20;;;8.20
66372;BMP180;53168;51.146;17.120;2024-01-25T03:54:32;99998.80;;;8.20
66372;BMP180;53168;51.146;17.120;2024-01-25T03:57:07;100011.00;;;8.20
66372;BMP180;53168;51.146;17.120;2024-01-25T03:59:41;99994.80;;;8.20
66372;BMP180;53168;51.146;17.120;2024-01-25T04:02:16;99997.60;;;8.10
66372;BMP180;53168;51.146;17.120;2024-01-25T04:04:51;100003.80;;;8.10
66372;BMP180;53168;51.146;17.120;2024-01-25T04:07:27;100009.60;;;8.14
66372;BMP180;53168;51.146;17.120;2024-01-25T04:10:01;99992.40;;;8.12
66372;BMP180;53168;51.146;17.120;2024-01-25T04:12:35;99988.60;;;8.10
66372;BMP180;53168;51.146;17.120;2024-01-25T04:15:11;100001.80;;;8.10
66372;BMP180;53168;51.146;17.120;2024-01-25T04:17:45;99984.80;;;8.04
66372;BMP180;53168;51.146;17.120;2024-01-25T04:20:20;99997.80;;;8.10
66372;BMP180;53168;51.146;17.120;2024-01-25T04:23:04;99990.80;;;8.00
66372;BMP180;53168;51.146;17.120;2024-01-25T04:25:38;99996.60;;;8.00
66372;BMP180;53168;51.146;17.120;2024-01-25T04:28:21;99994.20;;;8.00
66372;BMP180;53168;51.146;17.120;2024-01-25T04:31:28;99995.00;;;8.00
66372;BMP180;53168;51.146;17.120;2024-01-25T04:34:04;99988.20;;;8.00
66372;BMP180;53168;51.146;17.120;2024-01-25T04:36:38;99992.60;;;7.80
66372;BMP180;53168;51.146;17.120;2024-01-25T04:39:14;99995.60;;;7.60
66372;BMP180;53168;51.146;17.120;2024-01-25T04:42:09;99983.20;;;7.50
66372;BMP180;53168;51.146;17.120;2024-01-25T04:44:43;99989.20;;;7.40
66372;BMP180;53168;51.146;17.120;2024-01-25T04:47:17;99980.60;;;7.30
66372;BMP180;53168;51.146;17.120;2024-01-25T04:49:51;99979.40;;;7.30
66372;BMP180;53168;51.146;17.120;2024-01-25T04:52:26;99993.60;;;7.26
66372;BMP180;53168;51.146;17.120;2024-01-25T04:55:02;99992.20;;;7.30
66372;BMP180;53168;51.146;17.120;2024-01-25T04:57:36;99997.80;;;7.30
66372;BMP180;53168;51.146;17.120;2024-01-25T05:00:14;99990.00;;;7.30
66372;BMP180;53168;51.146;17.120;2024-01-25T05:02:49;99989.80;;;7.30
66372;BMP180;53168;51.146;17.120;2024-01-25T05:05:23;99984.80;;;7.30
66372;BMP180;53168;51.146;17.120;2024-01-25T05:07:56;99987.80;;;7.30
66372;BMP180;53168;51.146;17.120;2024-01-25T05:11:03;99995.00;;;7.38
66372;BMP180;53168;51.146;17.120;2024-01-25T05:13:39;99999.80;;;7.46
66372;BMP180;53168;51.146;17.120;2024-01-25T05:16:14;99996.00;;;7.50
66372;BMP180;53168;51.146;17.120;2024-01-25T05:18:47;99995.60;;;7.60
66372;BMP180;53168;51.146;17.120;2024-01-25T05:21:22;100001.20;;;7.60
66372;BMP180;53168;51.146;17.120;2024-01-25T05:23:57;100004.20;;;7.60
66372;BMP180;53168;51.146;17.120;2024-01-25T05:26:33;100001.00;;;7.60
66372;BMP180;53168;51.146;17.120;2024-01-25T05:29:07;99996.40;;;7.70
66372;BMP180;53168;51.146;17.120;2024-01-25T05:31:41;99994.40;;;7.70
66372;BMP180;53168;51.146;17.120;2024-01-25T05:34:16;100005.60;;;7.70
66372;BMP180;53168;51.146;17.120;2024-01-25T05:36:50;99992.20;;;7.70
66372;BMP180;53168;51.146;17.120;2024-01-25T05:39:24;99994.80;;;7.80
66372;BMP180;53168;51.146;17.120;2024-01-25T05:41:58;99993.00;;;7.90
66372;BMP180;53168;51.146;17.120;2024-01-25T05:44:33;99988.80;;;7.90
66372;BMP180;53168;51.146;17.120;2024-01-25T05:47:07;100006.20;;;7.90
66372;BMP180;53168;51.146;17.120;2024-01-25T05:49:41;100010.40;;;7.90
66372;BMP180;53168;51.146;17.120;2024-01-25T05:52:16;100009.80;;;7.82
66372;BMP180;53168;51.146;17.120;2024-01-25T05:54:50;100019.80;;;7.80
66372;BMP180;53168;51.146;17.120;2024-01-25T05:57:24;100015.40;;;7.80
66372;BMP180;53168;51.146;17.120;2024-01-25T05:59:58;100018.60;;;7.70
66372;BMP180;53168;51.146;17.120;2024-01-25T06:02:39;100020.60;;;7.70
66372;BMP180;53168;51.146;17.120;2024-01-25T06:05:15;100031.00;;;7.70
66372;BMP180;53168;51.146;17.120;2024-01-25T06:07:51;100033.40;;;7.68
66372;BMP180;53168;51.146;17.120;2024-01-25T06:10:25;100040.80;;;7.60
66372;BMP180;53168;51.146;17.120;2024-01-25T06:12:59;100030.40;;;7.50
66372;BMP180;53168;51.146;17.120;2024-01-25T06:15:34;100036.80;;;7.50
66372;BMP180;53168;51.146;17.120;2024-01-25T06:18:08;100039.80;;;7.46
66372;BMP180;53168;51.146;17.120;2024-01-25T06:20:42;100037.80;;;7.40
66372;BMP180;53168;51.146;17.120;2024-01-25T06:23:17;100040.20;;;7.40
66372;BMP180;53168;51.146;17.120;2024-01-25T06:25:51;100036.80;;;7.40
66372;BMP180;53168;51.146;17.120;2024-01-25T06:28:25;100042.40;;;7.40
66372;BMP180;53168;51.146;17.120;2024-01-25T06:31:02;100062.80;;;7.40
66372;BMP180;53168;51.146;17.120;2024-01-25T06:33:36;100065.20;;;7.40
66372;BMP180;53168;51.146;17.120;2024-01-25T06:36:11;100054.60;;;7.40
66372;BMP180;53168;51.146;17.120;2024-01-25T06:38:47;100055.40;;;7.40
66372;BMP180;53168;51.146;17.120;2024-01-25T06:41:24;100052.00;;;7.40
66372;BMP180;53168;51.146;17.120;2024-01-25T06:43:58;100064.80;;;7.46
66372;BMP180;53168;51.146;17.120;2024-01-25T06:46:32;100060.00;;;7.40
66372;BMP180;53168;51.146;17.120;2024-01-25T06:49:07;100059.20;;;7.42
66372;BMP180;53168;51.146;17.120;2024-01-25T06:51:41;100069.80;;;7.50
66372;BMP180;53168;51.146;17.120;2024-01-25T06:54:21;100061.00;;;7.50
66372;BMP180;53168;51.146;17.120;2024-01-25T06:56:57;100068.20;;;7.50
66372;BMP180;53168;51.146;17.120;2024-01-25T06:59:34;100066.00;;;7.50
66372;BMP180;53168;51.146;17.120;2024-01-25T07:02:08;100058.20;;;7.56
66372;BMP180;53168;51.146;17.120;2024-01-25T07:04:43;100062.60;;;7.60
66372;BMP180;53168;51.146;17.120;2024-01-25T07:07:18;100065.40;;;7.60
66372;BMP180;53168;51.146;17.120;2024-01-25T07:09:52;100069.80;;;7.70
66372;BMP180;53168;51.146;17.120;2024-01-25T07:12:26;100059.80;;;7.70
66372;BMP180;53168;51.146;17.120;2024-01-25T07:15:00;100060.20;;;7.70
66372;BMP180;53168;51.146;17.120;2024-01-25T07:17:36;100078.40;;;7.72
66372;BMP180;53168;51.146;17.120;2024-01-25T07:20:13;100069.20;;;7.80
66372;BMP180;53168;51.146;17.120;2024-01-25T07:22:48;100084.00;;;7.80
66372;BMP180;53168;51.146;17.120;2024-01-25T07:25:23;100073.60;;;7.80
66372;BMP180;53168;51.146;17.120;2024-01-25T07:27:56;100079.80;;;7.90
66372;BMP180;53168;51.146;17.120;2024-01-25T07:30:30;100088.40;;;8.00
66372;BMP180;53168;51.146;17.120;2024-01-25T07:33:12;100098.40;;;8.06
66372;BMP180;53168;51.146;17.120;2024-01-25T07:35:46;100103.00;;;8.00
66372;BMP180;53168;51.146;17.120;2024-01-25T07:38:21;100119.80;;;8.00
66372;BMP180;53168;51.146;17.120;2024-01-25T07:40:54;100116.80;;;8.00
66372;BMP180;53168;51.146;17.120;2024-01-25T07:43:28;100127.40;;;7.96
66372;BMP180;53168;51.146;17.120;2024-01-25T07:46:02;100127.40;;;7.98
66372;BMP180;53168;51.146;17.120;2024-01-25T07:48:41;100136.40;;;8.00
66372;BMP180;53168;51.146;17.120;2024-01-25T07:51:17;100154.20;;;8.00
66372;BMP180;53168;51.146;17.120;2024-01-25T07:53:50;100132.00;;;8.10
66372;BMP180;53168;51.146;17.120;2024-01-25T07:56:25;100136.80;;;8.10
66372;BMP180;53168;51.146;17.120;2024-01-25T07:58:59;100138.80;;;8.12
66372;BMP180;53168;51.146;17.120;2024-01-25T08:01:37;100156.00;;;8.20
66372;BMP180;53168;51.146;17.120;2024-01-25T08:04:12;100161.40;;;8.28
66372;BMP180;53168;51.146;17.120;2024-01-25T08:06:46;100148.80;;;8.30
66372;BMP180;53168;51.146;17.120;2024-01-25T08:09:20;100146.40;;;8.30
66372;BMP180;53168;51.146;17.120;2024-01-25T08:11:54;100168.00;;;8.20
66372;BMP180;53168;51.146;17.120;2024-01-25T08:14:28;100167.60;;;8.20
66372;BMP180;53168;51.146;17.120;2024-01-25T08:17:02;100186.80;;;8.20
66372;BMP180;53168;51.146;17.120;2024-01-25T08:19:37;100169.40;;;8.20
66372;BMP180;53168;51.146;17.120;2024-01-25T08:22:11;100182.80;;;8.16
66372;BMP180;53168;51.146;17.120;2024-01-25T08:24:45;100182.00;;;8.10
66372;BMP180;53168;51.146;17.120;2024-01-25T08:27:20;100185.00;;;8.10
66372;BMP180;53168;51.146;17.120;2024-01-25T08:29:55;100186.40;;;8.10
66372;BMP180;53168;51.146;17.120;2024-01-25T08:32:29;100179.40;;;8.10
66372;BMP180;53168;51.146;17.120;2024-01-25T08:35:03;100179.00;;;8.10
66372;BMP180;53168;51.146;17.120;2024-01-25T08:37:39;100169.00;;;8.20
66372;BMP180;53168;51.146;17.120;2024-01-25T08:40:15;100168.40;;;8.20
66372;BMP180;53168;51.146;17.120;2024-01-25T08:42:49;100177.20;;;8.20
66372;BMP180;53168;51.146;17.120;2024-01-25T08:45:24;100181.00;;;8.18
66372;BMP180;53168;51.146;17.120;2024-01-25T08:47:58;100175.20;;;8.12
66372;BMP180;53168;51.146;17.120;2024-01-25T08:50:33;100182.40;;;8.20
66372;BMP180;53168;51.146;17.120;2024-01-25T08:53:08;100186.20;;;8.20
66372;BMP180;53168;51.146;17.120;2024-01-25T08:55:43;100179.60;;;8.30
66372;BMP180;53168;51.146;17.120;2024-01-25T08:58:17;100185.20;;;8.30
66372;BMP180;53168;51.146;17.120;2024-01-25T09:00:52;100190.80;;;8.34
66372;BMP180;53168;51.146;17.120;2024-01-25T09:03:28;100190.80;;;8.40
66372;BMP180;53168;51.146;17.120;2024-01-25T09:06:03;100194.60;;;8.40
66372;BMP180;53168;51.146;17.120;2024-01-25T09:08:41;100208.80;;;8.50
66372;BMP180;53168;51.146;17.120;2024-01-25T09:11:14;100208.40;;;8.50
66372;BMP180;53168;51.146;17.120;2024-01-25T09:13:50;100223.00;;;8.50
66372;BMP180;53168;51.146;17.120;2024-01-25T09:16:24;100215.20;;;8.50
66372;BMP180;53168;51.146;17.120;2024-01-25T09:18:58;100232.00;;;8.50
66372;BMP180;53168;51.146;17.120;2024-01-25T09:21:33;100225.80;;;8.60
66372;BMP180;53168;51.146;17.120;2024-01-25T09:24:07;100220.40;;;8.64
66372;BMP180;53168;51.146;17.120;2024-01-25T09:26:43;100221.00;;;8.70
66372;BMP180;53168;51.146;17.120;2024-01-25T09:41:13;100224.80;;;8.80
66372;BMP180;53168;51.146;17.120;2024-01-25T09:43:43;100230.20;;;8.80
66372;BMP180;53168;51.146;17.120;2024-01-25T09:46:20;100230.60;;;8.86
66372;BMP180;53168;51.146;17.120;2024-01-25T09:48:51;100234.80;;;8.90
66372;BMP180;53168;51.146;17.120;2024-01-25T09:51:23;100223.20;;;8.90
66372;BMP180;53168;51.146;17.120;2024-01-25T09:53:56;100227.80;;;8.90
66372;BMP180;53168;51.146;17.120;2024-01-25T09:56:33;100229.40;;;8.90
66372;BMP180;53168;51.146;17.120;2024-01-25T09:59:04;100232.80;;;9.00
66372;BMP180;53168;51.146;17.120;2024-01-25T10:01:43;100239.80;;;9.00
66372;BMP180;53168;51.146;17.120;2024-01-25T10:04:15;100248.80;;;9.00
66372;BMP180;53168;51.146;17.120;2024-01-25T10:06:50;100250.20;;;9.00
66372;BMP180;53168;51.146;17.120;2024-01-25T10:09:28;100252.00;;;9.00
66372;BMP180;53168;51.146;17.120;2024-01-25T10:12:01;100252.60;;;9.00
66372;BMP180;53168;51.146;17.120;2024-01-25T10:14:50;100247.40;;;9.00
66372;BMP180;53168;51.146;17.120;2024-01-25T10:17:23;100243.20;;;8.90
66372;BMP180;53168;51.146;17.120;2024-01-25T10:19:56;100256.80;;;8.90
66372;BMP180;53168;51.146;17.120;2024-01-25T10:22:28;100262.80;;;8.80
66372;BMP180;53168;51.146;17.120;2024-01-25T10:25:04;100268.60;;;8.70
66372;BMP180;53168;51.146;17.120;2024-01-25T10:27:36;100266.20;;;8.62
66372;BMP180;53168;51.146;17.120;2024-01-25T10:30:14;100275.60;;;8.58
66372;BMP180;53168;51.146;17.120;2024-01-25T10:32:46;100266.00;;;8.50
66372;BMP180;53168;51.146;17.120;2024-01-25T10:35:21;100264.40;;;8.54
66372;BMP180;53168;51.146;17.120;2024-01-25T10:37:57;100263.60;;;8.60
66372;BMP180;53168;51.146;17.120;2024-01-25T10:40:30;100267.20;;;8.70
66372;BMP180;53168;51.146;17.120;2024-01-25T10:43:00;100279.20;;;8.70
66372;BMP180;53168;51.146;17.120;2024-01-25T10:45:32;100273.00;;;8.60
66372;BMP180;53168;51.146;17.120;2024-01-25T10:48:06;100280.80;;;8.60
66372;BMP180;53168;51.146;17.120;2024-01-25T10:50:41;100276.20;;;8.70
66372;BMP180;53168;51.146;17.120;2024-01-25T10:53:17;100278.20;;;8.68
66372;BMP180;53168;51.146;17.120;2024-01-25T10:55:49;100271.80;;;8.70
66372;BMP180;53168;51.146;17.120;2024-01-25T10:58:21;100265.60;;;8.76
66372;BMP180;53168;51.146;17.120;2024-01-25T11:00:56;100278.20;;;8.80
66372;BMP180;53168;51.146;17.120;2024-01-25T11:03:28;100264.80;;;8.80
66372;BMP180;53168;51.146;17.120;2024-01-25T11:06:16;100276.60;;;8.80
66372;BMP180;53168;51.146;17.120;2024-01-25T11:08:50;100266.80;;;8.80
66372;BMP180;53168;51.146;17.120;2024-01-25T11:11:23;100277.20;;;8.70
66372;BMP180;53168;51.146;17.120;2024-01-25T11:13:58;100271.00;;;8.80
66372;BMP180;53168;51.146;17.120;2024-01-25T11:16:32;100271.00;;;8.80
66372;BMP180;53168;51.146;17.120;2024-01-25T11:19:06;100271.00;;;8.80
66372;BMP180;53168;51.146;17.120;2024-01-25T11:21:47;100263.00;;;8.80
66372;BMP180;53168;51.146;17.120;2024-01-25T11:24:24;100274.20;;;8.80
66372;BMP180;53168;51.146;17.120;2024-01-25T11:26:56;100279.00;;;8.84
66372;BMP180;53168;51.146;17.120;2024-01-25T11:29:27;100280.20;;;8.90
66372;BMP180;53168;51.146;17.120;2024-01-25T11:31:57;100296.00;;;8.90
66372;BMP180;53168;51.146;17.120;2024-01-25T11:34:28;100285.20;;;8.92
66372;BMP180;53168;51.146;17.120;2024-01-25T11:36:58;100303.00;;;9.00
66372;BMP180;53168;51.146;17.120;2024-01-25T11:39:28;100299.00;;;8.94
66372;BMP180;53168;51.146;17.120;2024-01-25T11:42:01;100296.00;;;8.90
66372;BMP180;53168;51.146;17.120;2024-01-25T11:44:31;100301.20;;;8.90
66372;BMP180;53168;51.146;17.120;2024-01-25T11:47:03;100299.40;;;8.80
66372;BMP180;53168;51.146;17.120;2024-01-25T11:49:39;100309.60;;;8.72
66372;BMP180;53168;51.146;17.120;2024-01-25T11:52:15;100312.60;;;8.70
66372;BMP180;53168;51.146;17.120;2024-01-25T11:54:46;100326.00;;;8.76
66372;BMP180;53168;51.146;17.120;2024-01-25T11:57:17;100324.00;;;8.80
66372;BMP180;53168;51.146;17.120;2024-01-25T11:59:48;100314.00;;;8.88
66372;BMP180;53168;51.146;17.120;2024-01-25T12:02:19;100322.00;;;8.90
66372;BMP180;53168;51.146;17.120;2024-01-25T12:04:50;100330.00;;;8.98
66372;BMP180;53168;51.146;17.120;2024-01-25T12:07:25;100352.20;;;8.90
66372;BMP180;53168;51.146;17.120;2024-01-25T12:10:05;100329.40;;;8.90
66372;BMP180;53168;51.146;17.120;2024-01-25T12:12:37;100327.00;;;8.90
66372;BMP180;53168;51.146;17.120;2024-01-25T12:15:11;100320.20;;;8.90
66372;BMP180;53168;51.146;17.120;2024-01-25T12:17:43;100321.60;;;9.00
66372;BMP180;53168;51.146;17.120;2024-01-25T12:20:13;100324.60;;;9.10
66372;BMP180;53168;51.146;17.120;2024-01-25T12:24:38;100326.00;;;9.10
66372;BMP180;53168;51.146;17.120;2024-01-25T12:27:26;100318.80;;;9.20
66372;BMP180;53168;51.146;17.120;2024-01-25T12:30:00;100315.80;;;9.20
66372;BMP180;53168;51.146;17.120;2024-01-25T12:32:35;100305.80;;;9.20
66372;BMP180;53168;51.146;17.120;2024-01-25T12:35:21;100312.80;;;9.30
66372;BMP180;53168;51.146;17.120;2024-01-25T12:37:57;100319.20;;;9.44
66372;BMP180;53168;51.146;17.120;2024-01-25T12:40:32;100337.20;;;9.58
66372;BMP180;53168;51.146;17.120;2024-01-25T12:43:06;100336.60;;;9.60
66372;BMP180;53168;51.146;17.120;2024-01-25T12:45:43;100329.20;;;9.70
66372;BMP180;53168;51.146;17.120;2024-01-25T12:48:18;100331.20;;;9.90
66372;BMP180;53168;51.146;17.120;2024-01-25T12:50:55;100337.00;;;10.00
66372;BMP180;53168;51.146;17.120;2024-01-25T12:53:34;100339.20;;;9.92
66372;BMP180;53168;51.146;17.120;2024-01-25T12:56:09;100326.60;;;9.90
66372;BMP180;53168;51.146;17.120;2024-01-25T12:58:43;100350.00;;;9.84
66372;BMP180;53168;51.146;17.120;2024-01-25T13:01:18;100330.20;;;9.80
66372;BMP180;53168;51.146;17.120;2024-01-25T13:03:53;100347.00;;;9.80
66372;BMP180;53168;51.146;17.120;2024-01-25T13:06:29;100349.80;;;9.70
66372;BMP180;53168;51.146;17.120;2024-01-25T13:09:03;100345.20;;;9.70
66372;BMP180;53168;51.146;17.120;2024-01-25T13:12:13;100351.60;;;9.58
66372;BMP180;53168;51.146;17.120;2024-01-25T13:15:45;100361.60;;;9.50
66372;BMP180;53168;51.146;17.120;2024-01-25T13:18:57;100358.80;;;9.48
66372;BMP180;53168;51.146;17.120;2024-01-25T13:21:59;100358.80;;;9.40
66372;BMP180;53168;51.146;17.120;2024-01-25T13:24:37;100364.20;;;9.40
66372;BMP180;53168;51.146;17.120;2024-01-25T13:27:35;100369.20;;;9.30
66372;BMP180;53168;51.146;17.120;2024-01-25T13:30:39;100377.40;;;9.30
66372;BMP180;53168;51.146;17.120;2024-01-25T13:33:41;100382.00;;;9.20
66372;BMP180;53168;51.146;17.120;2024-01-25T13:36:20;100391.80;;;9.20
66372;BMP180;53168;51.146;17.120;2024-01-25T13:38:54;100384.60;;;9.20
66372;BMP180;53168;51.146;17.120;2024-01-25T13:41:39;100384.60;;;9.10
66372;BMP180;53168;51.146;17.120;2024-01-25T13:47:40;100388.20;;;9.00
66372;BMP180;53168;51.146;17.120;2024-01-25T13:50:14;100388.80;;;9.00
66372;BMP180;53168;51.146;17.120;2024-01-25T13:52:48;100397.00;;;8.94
66372;BMP180;53168;51.146;17.120;2024-01-25T13:55:33;100396.00;;;8.90
66372;BMP180;53168;51.146;17.120;2024-01-25T13:58:09;100395.40;;;8.90
66372;BMP180;53168;51.146;17.120;2024-01-25T14:00:45;100384.40;;;8.90
66372;BMP180;53168;51.146;17.120;2024-01-25T14:03:19;100395.60;;;8.96
66372;BMP180;53168;51.146;17.120;2024-01-25T14:05:53;100384.60;;;8.90
66372;BMP180;53168;51.146;17.120;2024-01-25T14:08:29;100387.60;;;8.90
66372;BMP180;53168;51.146;17.120;2024-01-25T14:11:03;100398.00;;;8.88
66372;BMP180;53168;51.146;17.120;2024-01-25T14:13:38;100391.80;;;8.90
66372;BMP180;53168;51.146;17.120;2024-01-25T14:16:12;100386.00;;;8.88
66372;BMP180;53168;51.146;17.120;2024-01-25T14:18:50;100388.20;;;8.80
66372;BMP180;53168;51.146;17.120;2024-01-25T14:21:25;100397.00;;;8.72
66372;BMP180;53168;51.146;17.120;2024-01-25T14:24:00;100395.80;;;8.70
66372;BMP180;53168;51.146;17.120;2024-01-25T14:26:36;100386.80;;;8.60
66372;BMP180;53168;51.146;17.120;2024-01-25T14:29:10;100380.20;;;8.60
66372;BMP180;53168;51.146;17.120;2024-01-25T14:31:45;100400.80;;;8.60
66372;BMP180;53168;51.146;17.120;2024-01-25T14:34:21;100405.00;;;8.50
66372;BMP180;53168;51.146;17.120;2024-01-25T14:36:55;100408.00;;;8.42
66372;BMP180;53168;51.146;17.120;2024-01-25T14:39:29;100410.60;;;8.40
66372;BMP180;53168;51.146;17.120;2024-01-25T14:42:04;100409.60;;;8.40
66372;BMP180;53168;51.146;17.120;2024-01-25T14:44:46;100413.80;;;8.30
66372;BMP180;53168;51.146;17.120;2024-01-25T14:47:21;100430.80;;;8.24
66372;BMP180;53168;51.146;17.120;2024-01-25T14:49:55;100423.20;;;8.20
66372;BMP180;53168;51.146;17.120;2024-01-25T14:52:29;100423.40;;;8.20
66372;BMP180;53168;51.146;17.120;2024-01-25T14:55:09;100437.80;;;8.12
66372;BMP180;53168;51.146;17.120;2024-01-25T14:57:43;100441.00;;;8.10
66372;BMP180;53168;51.146;17.120;2024-01-25T15:00:20;100437.20;;;8.04
66372;BMP180;53168;51.146;17.120;2024-01-25T15:02:54;100452.20;;;8.00
66372;BMP180;53168;51.146;17.120;2024-01-25T15:05:31;100456.60;;;7.94
66372;BMP180;53168;51.146;17.120;2024-01-25T15:08:07;100453.80;;;7.92